sensor_id;sensor_type;location;lat;lon;timestamp;P1;durP1;ratioP1;P2;durP2;ratioP2
72941;SDS011;61097;55.818;37.312;2022-10-20T18:22:51;3.42;;;0.80;;
72941;SDS011;61097;55.818;37.312;2022-10-20T18:25:16;4.90;;;1.00;;
72941;SDS011;61097;55.818;37.312;2022-10-20T18:27:42;2.90;;;1.00;;
72941;SDS011;61097;55.818;37.312;2022-10-20T18:30:07;1.42;;;0.68;;
72941;SDS011;61097;55.818;37.312;2022-10-20T18:32:34;2.60;;;0.73;;
72941;SDS011;61097;55.818;37.312;2022-10-20T18:35:00;2.83;;;0.80;;
72941;SDS011;61097;55.818;37.312;2022-10-20T18:37:26;2.83;;;0.85;;
72941;SDS011;61097;55.818;37.312;2022-10-20T18:39:52;2.58;;;0.70;;
72941;SDS011;61097;55.818;37.312;2022-10-20T18:42:18;2.15;;;0.80;;
72941;SDS011;61097;55.818;37.312;2022-10-20T18:44:43;3.55;;;0.88;;
72941;SDS011;61097;55.818;37.312;2022-10-20T18:47:09;1.58;;;0.70;;
72941;SDS011;61097;55.818;37.312;2022-10-20T18:49:35;2.25;;;0.80;;
72941;SDS011;61097;55.818;37.312;2022-10-20T18:52:01;3.60;;;1.17;;
72941;SDS011;61097;55.818;37.312;2022-10-20T18:54:27;1.85;;;0.80;;
72941;SDS011;61097;55.818;37.312;2022-10-20T18:56:53;2.08;;;0.85;;
72941;SDS011;61097;55.818;37.312;2022-10-20T18:59:18;2.13;;;1.00;;
72941;SDS011;61097;55.818;37.312;2022-10-20T19:01:44;3.05;;;0.98;;
72941;SDS011;61097;55.818;37.312;2022-10-20T19:04:12;2.05;;;0.82;;
72941;SDS011;61097;55.818;37.312;2022-10-20T19:06:43;2.72;;;0.80;;
72941;SDS011;61097;55.818;37.312;2022-10-20T19:09:11;3.08;;;0.82;;
72941;SDS011;61097;55.818;37.312;2022-10-20T19:11:39;3.35;;;0.80;;
72941;SDS011;61097;55.818;37.312;2022-10-20T19:14:06;3.25;;;1.05;;
72941;SDS011;61097;55.818;37.312;2022-10-20T19:16:33;2.58;;;0.77;;
72941;SDS011;61097;55.818;37.312;2022-10-20T19:19:00;1.65;;;0.77;;
72941;SDS011;61097;55.818;37.312;2022-10-20T19:21:28;3.08;;;1.02;;
72941;SDS011;61097;55.818;37.312;2022-10-20T19:23:59;2.17;;;0.73;;
72941;SDS011;61097;55.818;37.312;2022-10-20T19:26:33;2.33;;;1.00;;
72941;SDS011;61097;55.818;37.312;2022-10-20T19:29:12;2.35;;;0.90;;
72941;SDS011;61097;55.818;37.312;2022-10-20T19:31:41;2.67;;;1.10;;
72941;SDS011;61097;55.818;37.312;2022-10-20T19:34:18;1.05;;;0.63;;
72941;SDS011;61097;55.818;37.312;2022-10-20T19:36:45;1.98;;;0.90;;
72941;SDS011;61097;55.818;37.312;2022-10-20T19:57:03;2.40;;;0.95;;
72941;SDS011;61097;55.818;37.312;2022-10-20T19:59:30;2.35;;;0.70;;
72941;SDS011;61097;55.818;37.312;2022-10-20T20:01:56;3.00;;;0.95;;
72941;SDS011;61097;55.818;37.312;2022-10-20T20:04:22;1.58;;;0.75;;
72941;SDS011;61097;55.818;37.312;2022-10-20T20:06:47;1.95;;;0.95;;
72941;SDS011;61097;55.818;37.312;2022-10-20T20:09:13;2.60;;;0.98;;
72941;SDS011;61097;55.818;37.312;2022-10-20T20:11:40;1.35;;;0.80;;
72941;SDS011;61097;55.818;37.312;2022-10-20T20:14:06;2.90;;;0.85;;
72941;SDS011;61097;55.818;37.312;2022-10-20T20:16:35;2.33;;;0.88;;
72941;SDS011;61097;55.818;37.312;2022-10-20T20:19:01;1.30;;;0.63;;
72941;SDS011;61097;55.818;37.312;2022-10-20T20:21:27;2.75;;;0.80;;
72941;SDS011;61097;55.818;37.312;2022-10-20T20:23:56;1.63;;;0.75;;
72941;SDS011;61097;55.818;37.312;2022-10-20T20:26:24;1.45;;;0.70;;
72941;SDS011;61097;55.818;37.312;2022-10-20T20:28:51;1.45;;;0.73;;
72941;SDS011;61097;55.818;37.312;2022-10-20T20:31:18;2.80;;;1.08;;
72941;SDS011;61097;55.818;37.312;2022-10-20T20:33:45;3.10;;;1.05;;
72941;SDS011;61097;55.818;37.312;2022-10-20T20:36:10;2.80;;;1.20;;
72941;SDS011;61097;55.818;37.312;2022-10-20T20:38:37;2.85;;;1.20;;
72941;SDS011;61097;55.818;37.312;2022-10-20T20:41:07;3.05;;;1.23;;
72941;SDS011;61097;55.818;37.312;2022-10-20T20:43:37;2.80;;;1.20;;
72941;SDS011;61097;55.818;37.312;2022-10-20T20:46:09;2.92;;;0.90;;
72941;SDS011;61097;55.818;37.312;2022-10-20T20:48:37;3.72;;;1.10;;
72941;SDS011;61097;55.818;37.312;2022-10-20T20:51:03;2.63;;;1.40;;
72941;SDS011;61097;55.818;37.312;2022-10-20T20:53:29;2.05;;;1.13;;
72941;SDS011;61097;55.818;37.312;2022-10-20T20:55:55;5.20;;;1.30;;
72941;SDS011;61097;55.818;37.312;2022-10-20T20:58:22;4.25;;;1.05;;
72941;SDS011;61097;55.818;37.312;2022-10-20T21:00:48;2.92;;;1.13;;
72941;SDS011;61097;55.818;37.312;2022-10-20T21:05:43;2.42;;;1.10;;
72941;SDS011;61097;55.818;37.312;2022-10-20T21:08:09;2.53;;;1.30;;
72941;SDS011;61097;55.818;37.312;2022-10-20T21:10:35;3.08;;;1.13;;
72941;SDS011;61097;55.818;37.312;2022-10-20T21:13:01;2.63;;;1.13;;
72941;SDS011;61097;55.818;37.312;2022-10-20T22:03:18;4.50;;;1.58;;
72941;SDS011;61097;55.818;37.312;2022-10-20T22:05:44;3.22;;;1.02;;
72941;SDS011;61097;55.818;37.312;2022-10-20T22:08:10;2.45;;;0.90;;
72941;SDS011;61097;55.818;37.312;2022-10-20T22:10:36;1.73;;;0.93;;
72941;SDS011;61097;55.818;37.312;2022-10-20T22:13:02;2.47;;;1.02;;
72941;SDS011;61097;55.818;37.312;2022-10-20T22:15:29;4.20;;;1.15;;
72941;SDS011;61097;55.818;37.312;2022-10-20T22:17:55;4.55;;;0.98;;
72941;SDS011;61097;55.818;37.312;2022-10-20T22:20:20;2.13;;;1.20;;
72941;SDS011;61097;55.818;37.312;2022-10-20T22:22:46;4.88;;;1.40;;
72941;SDS011;61097;55.818;37.312;2022-10-20T22:25:12;1.88;;;0.90;;
72941;SDS011;61097;55.818;37.312;2022-10-20T22:27:39;2.15;;;0.98;;
72941;SDS011;61097;55.818;37.312;2022-10-20T22:30:04;2.05;;;0.82;;
72941;SDS011;61097;55.818;37.312;2022-10-20T22:32:31;1.33;;;0.70;;
72941;SDS011;61097;55.818;37.312;2022-10-20T22:34:58;4.28;;;1.75;;
72941;SDS011;61097;55.818;37.312;2022-10-20T22:37:28;5.10;;;1.88;;
72941;SDS011;61097;55.818;37.312;2022-10-20T22:39:55;5.60;;;2.15;;
72941;SDS011;61097;55.818;37.312;2022-10-20T22:42:29;4.40;;;1.98;;
72941;SDS011;61097;55.818;37.312;2022-10-20T22:44:59;5.13;;;1.98;;
72941;SDS011;61097;55.818;37.312;2022-10-20T22:47:25;6.00;;;2.20;;
72941;SDS011;61097;55.818;37.312;2022-10-20T22:49:53;4.75;;;2.20;;
72941;SDS011;61097;55.818;37.312;2022-10-20T22:52:20;7.18;;;2.17;;
72941;SDS011;61097;55.818;37.312;2022-10-20T22:54:48;7.18;;;2.75;;
72941;SDS011;61097;55.818;37.312;2022-10-20T22:57:15;6.60;;;2.00;;
72941;SDS011;61097;55.818;37.312;2022-10-20T22:59:42;5.20;;;2.03;;
72941;SDS011;61097;55.818;37.312;2022-10-20T23:02:09;4.20;;;1.90;;
72941;SDS011;61097;55.818;37.312;2022-10-20T23:04:38;5.20;;;1.83;;
72941;SDS011;61097;55.818;37.312;2022-10-20T23:07:08;4.40;;;1.58;;
72941;SDS011;61097;55.818;37.312;2022-10-20T23:09:37;5.43;;;1.80;;
72941;SDS011;61097;55.818;37.312;2022-10-20T23:36:45;3.33;;;1.50;;
72941;SDS011;61097;55.818;37.312;2022-10-20T23:39:14;3.90;;;1.80;;
72941;SDS011;61097;55.818;37.312;2022-10-20T23:41:40;3.88;;;1.63;;
72941;SDS011;61097;55.818;37.312;2022-10-20T23:44:10;4.28;;;1.85;;
72941;SDS011;61097;55.818;37.312;2022-10-20T23:46:38;4.40;;;1.88;;
72941;SDS011;61097;55.818;37.312;2022-10-20T23:49:16;5.43;;;1.88;;
72941;SDS011;61097;55.818;37.312;2022-10-20T23:51:43;6.78;;;2.25;;
72941;SDS011;61097;55.818;37.312;2022-10-20T23:54:10;4.40;;;1.90;;
72941;SDS011;61097;55.818;37.312;2022-10-20T23:56:39;6.13;;;1.77;;
72941;SDS011;61097;55.818;37.312;2022-10-20T23:59:05;4.78;;;1.98;;
